Time;durP1;ratioP1;P1;durP2;ratioP2;P2;SDS_P1;SDS_P2;PMS_P1;PMS_P2;Temp;Humidity;BMP_temperature;BMP_pressure;BME280_temperature;BME280_humidity;BME280_pressure;Samples;Min_cycle;Max_cycle;Signal;HPM_P1;HPM_P2
2021/12/23 00:01:26;;;;;;;1999.90;999.90;;;-3.00;99.90;;;;;;5058707;28;20442;-66
2021/12/23 00:03:52;;;;;;;1999.90;999.90;;;-3.00;99.90;;;;;;5070578;28;20445;-67
2021/12/23 00:06:20;;;;;;;1999.90;999.90;;;-3.00;99.90;;;;;;5067565;28;21016;-66
2021/12/23 00:08:47;;;;;;;1999.90;999.90;;;-2.90;99.90;;;;;;5056655;28;20441;-66
2021/12/23 00:11:13;;;;;;;1999.90;999.90;;;-2.80;99.90;;;;;;5060991;28;20453;-66
2021/12/23 00:13:48;;;;;;;1999.90;999.90;;;-2.80;99.90;;;;;;5068367;28;20950;-67
2021/12/23 00:16:18;;;;;;;1999.90;999.90;;;-2.90;99.90;;;;;;5068502;28;20996;-66
2021/12/23 00:18:51;;;;;;;1999.90;999.90;;;-3.00;99.90;;;;;;5073794;28;20495;-66
2021/12/23 00:24:04;;;;;;;1999.90;999.90;;;-2.40;99.90;;;;;;5035429;28;20422;-66
2021/12/23 00:26:30;;;;;;;1999.90;999.90;;;-2.80;99.90;;;;;;5035711;28;20486;-66
2021/12/23 00:28:58;;;;;;;1999.90;999.90;;;-2.80;99.90;;;;;;5055542;28;20446;-66
2021/12/23 00:31:24;;;;;;;1999.90;999.90;;;-2.80;99.90;;;;;;5063853;28;20445;-66
2021/12/23 00:33:51;;;;;;;1999.90;999.90;;;-2.80;99.90;;;;;;5055938;28;20953;-66
2021/12/23 00:36:17;;;;;;;1999.90;999.90;;;-2.70;99.90;;;;;;5052467;28;20942;-66
2021/12/23 00:38:50;;;;;;;1999.90;999.90;;;-2.80;99.90;;;;;;5052548;28;20450;-65
2021/12/23 00:41:17;;;;;;;1999.90;999.90;;;-2.80;99.90;;;;;;5059960;28;20446;-66
2021/12/23 00:43:43;;;;;;;1999.90;999.90;;;-2.70;99.90;;;;;;5057121;28;20455;-66
2021/12/23 00:46:10;;;;;;;1999.90;999.90;;;-2.60;99.90;;;;;;5072507;28;20905;-65
2021/12/23 00:48:39;;;;;;;1999.90;999.90;;;-2.50;99.90;;;;;;5059401;28;20450;-65
2021/12/23 00:51:06;;;;;;;1999.90;999.90;;;-2.50;99.90;;;;;;5059748;28;20449;-66
2021/12/23 00:53:37;;;;;;;1999.90;999.90;;;-2.50;99.90;;;;;;5056691;28;20442;-66
2021/12/23 00:56:06;;;;;;;1999.90;999.90;;;-2.60;99.90;;;;;;5065162;28;20469;-65
2021/12/23 00:58:33;;;;;;;1999.90;999.90;;;-2.50;99.90;;;;;;5068683;28;20984;-66
2021/12/23 01:01:00;;;;;;;1999.90;999.90;;;-2.50;99.90;;;;;;5062268;28;20454;-66
2021/12/23 01:03:27;;;;;;;1999.90;999.90;;;-2.50;99.90;;;;;;5057355;28;20456;-65
2021/12/23 01:05:54;;;;;;;1999.90;999.90;;;-2.50;99.90;;;;;;5071203;28;20485;-66
2021/12/23 01:08:21;;;;;;;1999.90;999.90;;;-2.40;99.90;;;;;;5054225;28;21025;-66
2021/12/23 01:10:51;;;;;;;1999.90;999.90;;;-2.50;99.90;;;;;;5054472;28;20476;-66
2021/12/23 01:13:20;;;;;;;1999.90;999.90;;;-2.50;99.90;;;;;;5054330;28;20504;-67
2021/12/23 01:15:59;;;;;;;1999.90;999.90;;;-2.50;99.90;;;;;;5054014;28;20453;-66
2021/12/23 01:18:29;;;;;;;1999.90;999.90;;;-2.50;99.90;;;;;;5055539;28;20482;-67
2021/12/23 01:21:04;;;;;;;1999.90;999.90;;;-2.40;99.90;;;;;;5053908;28;20876;-65
2021/12/23 01:23:38;;;;;;;1999.90;999.90;;;-2.40;99.90;;;;;;5054630;28;20440;-66
2021/12/23 01:26:05;;;;;;;1999.90;999.90;;;-2.50;99.90;;;;;;5036446;28;20472;-66
2021/12/23 01:28:33;;;;;;;1999.90;999.90;;;-2.50;99.90;;;;;;5053483;28;20462;-67
2021/12/23 01:30:59;;;;;;;1999.90;999.90;;;-2.50;99.90;;;;;;5053751;28;20450;-66
2021/12/23 01:33:26;;;;;;;1999.90;999.90;;;-2.40;99.90;;;;;;5054243;28;20442;-66
2021/12/23 01:35:53;;;;;;;1999.90;999.90;;;-2.30;99.90;;;;;;5054715;28;20496;-66
2021/12/23 01:38:20;;;;;;;1999.90;999.90;;;-2.30;99.90;;;;;;5053965;28;20551;-66
2021/12/23 01:40:47;;;;;;;1999.90;999.90;;;-2.30;99.90;;;;;;5053662;28;20533;-65
2021/12/23 01:43:14;;;;;;;1999.90;999.90;;;-2.30;99.90;;;;;;5054309;28;20446;-66
2021/12/23 01:45:47;;;;;;;1999.90;999.90;;;-2.30;99.90;;;;;;5054194;28;20565;-66
2021/12/23 01:48:14;;;;;;;1999.90;999.90;;;-2.30;99.90;;;;;;5054041;28;20470;-66
2021/12/23 01:50:41;;;;;;;1999.90;999.90;;;-2.30;99.90;;;;;;5053543;28;20508;-65
2021/12/23 01:53:08;;;;;;;1999.90;999.90;;;-2.30;99.90;;;;;;5053324;28;20950;-66
2021/12/23 01:55:36;;;;;;;1999.90;999.90;;;-2.20;99.90;;;;;;5042160;28;20437;-66
2021/12/23 01:58:04;;;;;;;1999.90;999.90;;;-2.20;99.90;;;;;;5064951;28;20996;-66
2021/12/23 02:00:33;;;;;;;1999.90;999.90;;;-2.20;99.90;;;;;;5061676;28;20472;-66
2021/12/23 02:03:02;;;;;;;1999.90;999.90;;;-2.20;99.90;;;;;;5053288;28;20442;-66
2021/12/23 02:05:30;;;;;;;1999.90;999.90;;;-2.40;99.90;;;;;;5040524;28;20505;-66
2021/12/23 02:07:57;;;;;;;1999.90;999.90;;;-2.40;99.90;;;;;;5065394;28;20985;-66
2021/12/23 02:10:24;;;;;;;1999.90;999.90;;;-2.30;99.90;;;;;;5061828;28;20451;-66
2021/12/23 02:12:51;;;;;;;1999.90;999.90;;;-2.30;99.90;;;;;;5054999;28;20951;-66
2021/12/23 02:15:19;;;;;;;1999.90;999.90;;;-2.30;99.90;;;;;;5069507;28;20473;-67
2021/12/23 02:17:48;;;;;;;1999.90;999.90;;;-2.10;99.90;;;;;;5058827;28;20473;-66
2021/12/23 02:20:18;;;;;;;1999.90;999.90;;;-2.10;99.90;;;;;;5064145;28;20457;-67
2021/12/23 02:22:46;;;;;;;1999.90;999.90;;;-2.10;99.90;;;;;;5070737;28;20492;-66
2021/12/23 02:25:14;;;;;;;1999.90;999.90;;;-2.00;99.90;;;;;;5053868;28;20459;-66
2021/12/23 02:27:41;;;;;;;1999.90;999.90;;;-2.00;99.90;;;;;;5053836;28;20856;-67
2021/12/23 02:30:11;;;;;;;1999.90;999.90;;;-2.00;99.90;;;;;;5053997;28;20473;-66
2021/12/23 02:32:39;;;;;;;1999.90;999.90;;;-2.10;99.90;;;;;;5053858;28;20446;-65
2021/12/23 02:35:10;;;;;;;1999.90;999.90;;;-2.10;99.90;;;;;;5052976;28;20446;-66
2021/12/23 02:37:38;;;;;;;1999.90;999.90;;;-2.10;99.90;;;;;;5070103;28;20992;-66
2021/12/23 02:40:06;;;;;;;1999.90;999.90;;;-2.10;99.90;;;;;;5050936;28;20442;-66
2021/12/23 02:42:32;;;;;;;1999.90;999.90;;;-2.10;99.90;;;;;;5040909;28;20442;-66
2021/12/23 02:45:01;;;;;;;1999.90;999.90;;;-2.10;99.90;;;;;;5061175;28;20507;-66
2021/12/23 02:47:28;;;;;;;1999.90;999.90;;;-2.00;99.90;;;;;;5059253;28;20486;-66
2021/12/23 02:49:54;;;;;;;1999.90;999.90;;;-2.00;99.90;;;;;;5068665;28;20453;-66
2021/12/23 02:52:21;;;;;;;1999.90;999.90;;;-2.00;99.90;;;;;;5072584;28;20449;-66
2021/12/23 02:54:55;;;;;;;1999.90;999.90;;;-2.00;99.90;;;;;;5061556;28;20797;-66
2021/12/23 02:57:23;;;;;;;1999.90;999.90;;;-1.90;99.90;;;;;;5072298;28;20831;-67
2021/12/23 02:59:49;;;;;;;1999.90;999.90;;;-1.40;99.90;;;;;;5057025;28;20446;-66
2021/12/23 03:02:16;;;;;;;1999.90;999.90;;;-1.90;99.90;;;;;;5069657;28;20452;-67
2021/12/23 03:04:43;;;;;;;1999.90;999.90;;;-1.80;99.90;;;;;;5058126;28;20441;-66
2021/12/23 03:07:10;;;;;;;1999.90;999.90;;;-1.90;99.90;;;;;;5072022;28;20562;-66
2021/12/23 03:09:36;;;;;;;1999.90;999.90;;;-1.90;99.90;;;;;;5059583;28;20847;-66
2021/12/23 03:12:05;;;;;;;1999.90;999.90;;;-1.90;99.90;;;;;;5071309;28;20446;-66
2021/12/23 03:14:32;;;;;;;1999.90;999.90;;;-1.80;99.90;;;;;;5072772;28;20498;-66
2021/12/23 03:16:58;;;;;;;1999.90;999.90;;;-1.90;99.90;;;;;;5072597;28;20469;-66
2021/12/23 03:19:25;;;;;;;1999.90;999.90;;;-1.80;99.90;;;;;;5061309;28;20450;-67
2021/12/23 03:21:52;;;;;;;1999.90;999.90;;;-1.80;99.90;;;;;;5052385;28;20507;-67
2021/12/23 03:24:19;;;;;;;1999.90;999.90;;;-1.70;99.90;;;;;;5052475;28;20503;-66
2021/12/23 03:26:46;;;;;;;1999.90;999.90;;;-1.70;99.90;;;;;;5052691;28;20486;-66
2021/12/23 03:29:14;;;;;;;1999.90;999.90;;;-1.80;99.90;;;;;;5051912;28;20447;-65
2021/12/23 03:31:41;;;;;;;1999.90;999.90;;;-1.80;99.90;;;;;;5051911;28;20446;-66
2021/12/23 03:34:08;;;;;;;1999.90;999.90;;;-1.70;99.90;;;;;;5060169;28;21218;-68
2021/12/23 03:36:34;;;;;;;1999.90;999.90;;;-1.60;99.90;;;;;;5051488;28;20588;-68
2021/12/23 03:39:01;;;;;;;1999.90;999.90;;;-1.70;99.90;;;;;;5052003;28;20446;-68
2021/12/23 03:41:28;;;;;;;1999.90;999.90;;;-1.60;99.90;;;;;;5051251;28;20950;-68
2021/12/23 03:43:54;;;;;;;1999.90;999.90;;;-1.70;99.90;;;;;;5051839;28;20450;-68
2021/12/23 03:46:23;;;;;;;1999.90;999.90;;;-1.70;99.90;;;;;;5051493;28;20576;-68
2021/12/23 03:48:51;;;;;;;1999.90;999.90;;;-1.70;99.90;;;;;;5051999;28;20470;-68
2021/12/23 03:51:19;;;;;;;1999.90;999.90;;;-1.80;99.90;;;;;;5050418;28;21019;-68
2021/12/23 03:53:45;;;;;;;1999.90;999.90;;;-1.60;99.90;;;;;;5051682;28;20450;-68
2021/12/23 03:56:14;;;;;;;1999.90;999.90;;;-1.70;99.90;;;;;;5050868;28;20491;-67
2021/12/23 03:58:40;;;;;;;1999.90;999.90;;;-1.80;99.90;;;;;;5051568;28;20446;-67
2021/12/23 04:01:07;;;;;;;1999.90;999.90;;;-1.80;99.90;;;;;;5051142;28;20454;-68
2021/12/23 04:03:36;;;;;;;1999.90;999.90;;;-1.70;99.90;;;;;;5051960;28;20496;-69
2021/12/23 04:06:02;;;;;;;1999.90;999.90;;;-1.70;99.90;;;;;;5051857;28;21054;-67
2021/12/23 04:08:29;;;;;;;1999.90;999.90;;;-1.60;99.90;;;;;;5051727;28;20493;-67
2021/12/23 04:10:58;;;;;;;1999.90;999.90;;;-1.60;99.90;;;;;;5051548;28;20515;-68
2021/12/23 04:13:25;;;;;;;1999.90;999.90;;;-1.70;99.90;;;;;;5051233;28;20486;-68
2021/12/23 04:15:52;;;;;;;1999.90;999.90;;;-1.70;99.90;;;;;;5051386;28;20438;-68
2021/12/23 04:18:18;;;;;;;1999.90;999.90;;;-1.50;99.90;;;;;;5057847;28;20473;-68
2021/12/23 04:20:53;;;;;;;1999.90;999.90;;;-1.60;99.90;;;;;;5063899;28;20525;-68
2021/12/23 04:23:20;;;;;;;1999.90;999.90;;;-1.50;99.90;;;;;;5051293;28;20488;-68
2021/12/23 04:25:47;;;;;;;1999.90;999.90;;;-1.60;99.90;;;;;;5051485;28;20886;-68
2021/12/23 04:28:14;;;;;;;1999.90;999.90;;;-1.50;99.90;;;;;;5050995;28;20462;-68
2021/12/23 04:30:40;;;;;;;1999.90;999.90;;;-1.50;99.90;;;;;;5050779;28;20446;-69
2021/12/23 04:33:07;;;;;;;1999.90;999.90;;;-1.50;99.90;;;;;;5052019;28;20823;-66
2021/12/23 04:35:34;;;;;;;1999.90;999.90;;;-1.50;99.90;;;;;;5051340;28;20996;-68
2021/12/23 04:38:01;;;;;;;1999.90;999.90;;;-1.50;99.90;;;;;;5051001;28;21055;-68
2021/12/23 04:40:30;;;;;;;1999.90;999.90;;;-1.50;99.90;;;;;;5050810;28;20507;-67
2021/12/23 04:42:57;;;;;;;1999.90;999.90;;;-1.50;99.90;;;;;;5051137;28;20457;-69
2021/12/23 04:45:24;;;;;;;1999.90;999.90;;;-1.40;99.90;;;;;;5051565;28;20446;-69
2021/12/23 04:47:50;;;;;;;1999.90;999.90;;;-1.40;99.90;;;;;;5050969;28;20514;-68
2021/12/23 04:50:18;;;;;;;1999.90;999.90;;;-1.40;99.90;;;;;;5051112;28;20454;-69
2021/12/23 04:52:45;;;;;;;1999.90;999.90;;;-1.40;99.90;;;;;;5049303;28;20458;-68
2021/12/23 04:55:15;;;;;;;1999.90;999.90;;;-1.40;99.90;;;;;;5039610;28;20477;-67
2021/12/23 04:57:42;;;;;;;1999.90;999.90;;;-1.10;99.90;;;;;;5052757;28;20830;-68
2021/12/23 05:00:13;;;;;;;1999.90;999.90;;;-1.40;99.90;;;;;;5051333;28;20476;-68
2021/12/23 05:02:40;;;;;;;1999.90;999.90;;;-1.40;99.90;;;;;;5067909;28;20518;-68
2021/12/23 05:05:07;;;;;;;1999.90;999.90;;;-1.40;99.90;;;;;;5068851;28;20477;-68
2021/12/23 05:07:34;;;;;;;1999.90;999.90;;;-1.40;99.90;;;;;;5060638;28;20513;-67
2021/12/23 05:10:01;;;;;;;1999.90;999.90;;;-1.40;99.90;;;;;;5055469;28;20452;-69
2021/12/23 05:12:29;;;;;;;1999.90;999.90;;;-1.40;99.90;;;;;;5042353;28;20451;-69
2021/12/23 05:14:56;;;;;;;1999.90;999.90;;;-1.30;99.90;;;;;;5070012;28;21028;-69
2021/12/23 05:17:23;;;;;;;1999.90;999.90;;;-1.40;99.90;;;;;;5072414;28;20477;-68
2021/12/23 05:19:49;;;;;;;1999.90;999.90;;;-1.30;99.90;;;;;;5058009;28;20446;-68
2021/12/23 05:22:16;;;;;;;1999.90;999.90;;;-1.20;99.90;;;;;;5058540;28;20454;-69
2021/12/23 05:24:42;;;;;;;1999.90;999.90;;;-1.20;99.90;;;;;;5054182;28;20446;-68
2021/12/23 05:27:09;;;;;;;1999.90;999.90;;;-1.10;99.90;;;;;;5054296;28;20482;-68
2021/12/23 05:29:37;;;;;;;1999.90;999.90;;;-1.20;99.90;;;;;;5054434;28;20447;-69
2021/12/23 05:32:04;;;;;;;1999.90;999.90;;;-1.10;99.90;;;;;;5054300;28;20446;-68
2021/12/23 05:34:31;;;;;;;1999.90;999.90;;;-1.00;99.90;;;;;;5053417;28;20476;-69
2021/12/23 05:36:58;;;;;;;1999.90;999.90;;;-1.10;99.90;;;;;;5053780;28;20881;-68
2021/12/23 05:39:25;;;;;;;1999.90;999.90;;;-1.00;99.90;;;;;;5048196;28;20456;-67
2021/12/23 05:41:51;;;;;;;1999.90;999.90;;;-1.00;99.90;;;;;;5044482;28;20447;-68
2021/12/23 05:44:18;;;;;;;1999.90;999.90;;;-1.00;99.90;;;;;;5054472;28;20446;-69
2021/12/23 05:46:46;;;;;;;1999.90;999.90;;;-0.90;99.90;;;;;;5055519;28;20486;-68
2021/12/23 05:49:13;;;;;;;1999.90;999.90;;;-0.80;99.90;;;;;;5066188;28;20475;-68
2021/12/23 05:51:40;;;;;;;1999.90;999.90;;;-0.80;99.90;;;;;;5064730;28;20457;-68
2021/12/23 05:54:07;;;;;;;1999.90;999.90;;;-0.80;99.90;;;;;;5055128;28;20442;-69
2021/12/23 05:56:33;;;;;;;1999.90;999.90;;;-0.80;99.90;;;;;;5069669;28;20487;-68
2021/12/23 05:59:00;;;;;;;1999.90;999.90;;;-0.80;99.90;;;;;;5053319;28;20454;-68
2021/12/23 06:01:26;;;;;;;1999.90;999.90;;;-0.90;99.90;;;;;;5055194;28;21232;-68
2021/12/23 06:03:54;;;;;;;1999.90;999.90;;;-0.90;99.90;;;;;;5064392;28;20553;-70
2021/12/23 06:06:21;;;;;;;1999.90;999.90;;;-0.80;99.90;;;;;;5058786;28;20497;-68
2021/12/23 06:08:48;;;;;;;1999.90;999.90;;;-0.90;99.90;;;;;;5070070;28;20442;-69
2021/12/23 06:11:14;;;;;;;1999.90;999.90;;;-0.80;99.90;;;;;;5052805;28;20442;-69
2021/12/23 06:13:41;;;;;;;1999.90;999.90;;;-0.80;99.90;;;;;;5062075;28;20480;-67
2021/12/23 06:16:07;;;;;;;1999.90;999.90;;;-0.80;99.90;;;;;;5069092;28;20478;-69
2021/12/23 06:18:34;;;;;;;1999.90;999.90;;;-0.80;99.90;;;;;;5053196;28;20470;-69
2021/12/23 06:21:02;;;;;;;1999.90;999.90;;;-0.80;99.90;;;;;;5052652;28;20934;-69
2021/12/23 06:23:30;;;;;;;1999.90;999.90;;;-0.70;99.90;;;;;;5052901;28;20830;-69
2021/12/23 06:25:57;;;;;;;1999.90;999.90;;;-0.70;99.90;;;;;;5053322;28;20486;-69
2021/12/23 06:28:24;;;;;;;1999.90;999.90;;;-0.70;99.90;;;;;;5053407;28;20909;-68
2021/12/23 06:30:50;;;;;;;1999.90;999.90;;;-0.60;99.90;;;;;;5052722;28;20446;-68
2021/12/23 06:33:17;;;;;;;1999.90;999.90;;;-0.60;99.90;;;;;;5053332;28;20446;-68
2021/12/23 06:35:43;;;;;;;1999.90;999.90;;;-0.60;99.90;;;;;;5052732;28;20524;-68
2021/12/23 06:38:12;;;;;;;1999.90;999.90;;;-0.60;99.90;;;;;;5053323;28;20515;-68
2021/12/23 06:40:41;;;;;;;1999.90;999.90;;;-0.50;99.90;;;;;;5033101;28;20489;-68
2021/12/23 06:43:08;;;;;;;1999.90;999.90;;;-0.40;99.90;;;;;;5061288;28;20507;-69
2021/12/23 06:45:34;;;;;;;1999.90;999.90;;;-0.20;99.90;;;;;;5053665;28;20446;-69
2021/12/23 06:48:01;;;;;;;1999.90;999.90;;;-0.30;99.90;;;;;;5052638;28;20482;-69
2021/12/23 06:50:28;;;;;;;1999.90;999.90;;;-0.40;99.90;;;;;;5052719;28;20499;-68
2021/12/23 06:52:55;;;;;;;1999.90;999.90;;;-0.40;99.90;;;;;;5051854;28;20823;-69
2021/12/23 06:55:23;;;;;;;1999.90;999.90;;;-0.40;99.90;;;;;;5062478;28;20443;-69
2021/12/23 06:57:55;;;;;;;1999.90;999.90;;;-0.40;99.90;;;;;;5052316;28;20462;-68
2021/12/23 07:00:22;;;;;;;1999.90;999.90;;;-0.40;99.90;;;;;;5042051;28;20530;-69
2021/12/23 07:02:49;;;;;;;1999.90;999.90;;;-0.40;99.90;;;;;;5052259;28;20473;-68
2021/12/23 07:05:16;;;;;;;1999.90;999.90;;;-0.30;99.90;;;;;;5052725;28;20450;-69
2021/12/23 07:07:53;;;;;;;1999.90;999.90;;;-0.40;99.90;;;;;;5068225;28;20481;-69
2021/12/23 07:10:20;;;;;;;1999.90;999.90;;;-0.30;99.90;;;;;;5072559;28;20437;-68
2021/12/23 07:12:49;;;;;;;1999.90;999.90;;;-0.10;99.90;;;;;;5057216;28;20508;-69
2021/12/23 07:15:15;;;;;;;1999.90;999.90;;;0.00;99.90;;;;;;5052250;28;20451;-69
2021/12/23 07:17:42;;;;;;;1999.90;999.90;;;0.00;99.90;;;;;;5052198;28;20475;-68
2021/12/23 07:20:10;;;;;;;1999.90;999.90;;;0.10;99.90;;;;;;5053020;28;20499;-68
2021/12/23 07:22:37;;;;;;;1999.90;999.90;;;0.20;99.90;;;;;;5052720;28;20825;-68
2021/12/23 07:25:04;;;;;;;1999.90;999.90;;;0.20;99.90;;;;;;5048958;28;20451;-69
2021/12/23 07:27:31;;;;;;;1999.90;999.90;;;0.20;99.90;;;;;;5051535;28;20510;-68
2021/12/23 07:29:59;;;;;;;1999.90;999.90;;;0.20;99.90;;;;;;5051028;28;20450;-68
2021/12/23 07:32:26;;;;;;;1999.90;999.90;;;0.30;99.90;;;;;;5051930;28;20495;-69
2021/12/23 07:34:52;;;;;;;1999.90;999.90;;;0.30;99.90;;;;;;5051871;28;20473;-69
2021/12/23 07:37:20;;;;;;;1999.90;999.90;;;0.40;99.90;;;;;;5054030;28;20462;-69
2021/12/23 07:39:48;;;;;;;1999.90;999.90;;;0.50;99.90;;;;;;5056218;28;20442;-69
2021/12/23 07:42:16;;;;;;;1999.90;999.90;;;0.50;99.90;;;;;;5051051;28;20993;-70
2021/12/23 07:44:43;;;;;;;1999.90;999.90;;;0.50;99.90;;;;;;5051649;28;20504;-69
2021/12/23 07:47:12;;;;;;;1999.90;999.90;;;0.50;99.90;;;;;;5051549;28;20482;-69
2021/12/23 07:49:39;;;;;;;1999.90;999.90;;;0.50;99.90;;;;;;5051879;28;20442;-69
2021/12/23 07:52:07;;;;;;;1999.90;999.90;;;0.50;99.90;;;;;;5051195;28;20465;-67
2021/12/23 07:54:33;;;;;;;1999.90;999.90;;;0.60;99.90;;;;;;5051685;28;20458;-68
2021/12/23 07:57:00;;;;;;;1999.90;999.90;;;0.50;99.90;;;;;;5051695;28;20989;-68
2021/12/23 07:59:28;;;;;;;1999.90;999.90;;;0.50;99.90;;;;;;5051328;28;20484;-68
2021/12/23 08:01:55;;;;;;;1999.90;999.90;;;0.60;99.90;;;;;;5051566;28;20450;-68
2021/12/23 08:04:23;;;;;;;1999.90;999.90;;;0.70;99.90;;;;;;5051605;28;20457;-68
2021/12/23 08:06:55;;;;;;;1999.90;999.90;;;0.70;99.90;;;;;;5051612;28;20496;-69
2021/12/23 08:09:22;;;;;;;1999.90;999.90;;;1.10;99.90;;;;;;5048745;28;20469;-68
2021/12/23 08:11:48;;;;;;;1999.90;999.90;;;0.90;99.90;;;;;;5051317;28;20451;-67
2021/12/23 08:14:15;;;;;;;1999.90;999.90;;;0.90;99.90;;;;;;5065115;28;20510;-69
2021/12/23 08:16:42;;;;;;;1999.90;999.90;;;1.00;99.90;;;;;;5053729;28;20576;-69
2021/12/23 08:19:09;;;;;;;1999.90;999.90;;;1.10;99.90;;;;;;5066174;28;20533;-69
2021/12/23 08:21:37;;;;;;;1999.90;999.90;;;1.10;99.90;;;;;;5062513;28;21003;-69
2021/12/23 08:24:04;;;;;;;1999.90;999.90;;;1.20;99.90;;;;;;5054835;28;20472;-69
2021/12/23 08:26:39;;;;;;;1999.90;999.90;;;1.30;99.90;;;;;;5066999;28;20461;-68
2021/12/23 08:29:06;;;;;;;1999.90;999.90;;;1.30;99.90;;;;;;5058078;28;20560;-68
2021/12/23 08:31:33;;;;;;;1999.90;999.90;;;1.10;99.90;;;;;;5061650;28;20443;-69
2021/12/23 08:34:00;;;;;;;1999.90;999.90;;;1.30;99.90;;;;;;5056197;28;20447;-69
2021/12/23 08:36:27;;;;;;;1999.90;999.90;;;1.30;99.90;;;;;;5066270;28;20446;-68
2021/12/23 08:38:55;;;;;;;1999.90;999.90;;;1.30;99.90;;;;;;5056162;28;20437;-68
2021/12/23 08:41:21;;;;;;;1999.90;999.90;;;1.30;99.90;;;;;;5051649;28;20548;-68
2021/12/23 08:43:48;;;;;;;1999.90;999.90;;;1.20;99.90;;;;;;5054873;28;20443;-68
2021/12/23 08:46:15;;;;;;;1999.90;999.90;;;1.30;99.90;;;;;;5054877;28;20452;-67
2021/12/23 08:48:42;;;;;;;1999.90;999.90;;;1.30;99.90;;;;;;5054816;28;20478;-68
2021/12/23 08:51:08;;;;;;;1999.90;999.90;;;1.30;99.90;;;;;;5054975;28;20446;-68
2021/12/23 08:53:35;;;;;;;1999.90;999.90;;;1.30;99.90;;;;;;5055147;28;20831;-69
2021/12/23 08:56:05;;;;;;;1999.90;999.90;;;1.30;99.90;;;;;;5054484;28;20816;-68
2021/12/23 08:58:31;;;;;;;1999.90;999.90;;;1.60;99.90;;;;;;5074627;28;20457;-69
2021/12/23 09:00:58;;;;;;;1999.90;999.90;;;1.40;99.90;;;;;;5055710;28;20523;-68
2021/12/23 09:03:26;;;;;;;1999.90;999.90;;;1.30;99.90;;;;;;5054903;28;20648;-68
2021/12/23 09:05:52;;;;;;;1999.90;999.90;;;1.40;99.90;;;;;;5055549;28;20952;-69
2021/12/23 09:08:19;;;;;;;1999.90;999.90;;;1.40;99.90;;;;;;5054593;28;20575;-68
2021/12/23 09:10:45;;;;;;;1999.90;999.90;;;1.50;99.90;;;;;;5054061;28;20471;-69
2021/12/23 09:13:13;;;;;;;1999.90;999.90;;;1.50;99.90;;;;;;5054420;28;20450;-67
2021/12/23 09:15:40;;;;;;;1999.90;999.90;;;1.60;99.90;;;;;;5054050;28;20816;-69
2021/12/23 09:18:07;;;;;;;1999.90;999.90;;;1.60;99.90;;;;;;5056813;28;20465;-67
2021/12/23 09:20:33;;;;;;;1999.90;999.90;;;1.80;99.90;;;;;;5057520;28;20492;-68
2021/12/23 09:23:01;;;;;;;1999.90;999.90;;;1.70;99.90;;;;;;5052894;28;20516;-68
2021/12/23 09:25:32;;;;;;;1999.90;999.90;;;1.70;99.90;;;;;;5054330;28;20447;-68
2021/12/23 09:28:13;;;;;;;1999.90;999.90;;;1.70;99.90;;;;;;5067569;28;20868;-68
2021/12/23 09:33:27;;;;;;;1999.90;999.90;;;1.70;99.90;;;;;;5061016;28;20446;-68
2021/12/23 09:35:54;;;;;;;1999.90;999.90;;;1.70;99.90;;;;;;5069567;28;20446;-69
2021/12/23 09:38:27;;;;;;;1999.90;999.90;;;1.70;99.90;;;;;;5067281;28;20492;-66
2021/12/23 09:40:56;;;;;;;1999.90;999.90;;;1.70;99.90;;;;;;5062593;28;20447;-68
2021/12/23 09:43:25;;;;;;;1999.90;999.90;;;1.80;99.90;;;;;;5054490;28;20458;-68
2021/12/23 09:45:53;;;;;;;1999.90;999.90;;;1.90;99.90;;;;;;5055431;28;20455;-69
2021/12/23 09:48:21;;;;;;;1999.90;999.90;;;1.90;99.90;;;;;;5052120;28;20530;-69
2021/12/23 09:50:49;;;;;;;1999.90;999.90;;;1.90;99.90;;;;;;5053155;28;20500;-68
2021/12/23 09:53:19;;;;;;;1999.90;999.90;;;1.80;99.90;;;;;;5052870;28;20481;-68
2021/12/23 09:55:46;;;;;;;1999.90;999.90;;;1.90;99.90;;;;;;5054487;28;20454;-67
2021/12/23 09:58:13;;;;;;;1999.90;999.90;;;1.90;99.90;;;;;;5065035;28;20489;-69
2021/12/23 10:00:45;;;;;;;1999.90;999.90;;;1.80;99.90;;;;;;5063516;28;20457;-68
2021/12/23 10:03:13;;;;;;;1999.90;999.90;;;1.80;99.90;;;;;;5063282;28;20466;-68
2021/12/23 10:05:40;;;;;;;1999.90;999.90;;;1.80;99.90;;;;;;5053617;28;20454;-68
2021/12/23 10:08:10;;;;;;;1999.90;999.90;;;1.80;99.90;;;;;;5069403;28;20482;-69
2021/12/23 10:10:41;;;;;;;1999.90;999.90;;;1.80;99.90;;;;;;5060727;28;20527;-67
2021/12/23 10:26:51;;;;;;;1999.90;999.90;;;1.80;99.90;;;;;;5060841;28;20447;-67
2021/12/23 10:27:43;;;;;;;1999.90;999.90;;;1.90;99.90;;;;;;5061007;28;20460;-66
2021/12/23 10:38:28;;;;;;;1999.90;999.90;;;2.20;99.90;;;;;;5031427;28;20529;-66
2021/12/23 10:40:57;;;;;;;1999.90;999.90;;;2.10;99.90;;;;;;5050085;28;20454;-65
2021/12/23 10:43:27;;;;;;;1999.90;999.90;;;2.30;99.90;;;;;;5052701;28;20450;-66
2021/12/23 10:45:57;;;;;;;1999.90;999.90;;;2.30;99.90;;;;;;5051811;28;20434;-67
2021/12/23 10:48:26;;;;;;;1999.90;999.90;;;2.30;99.90;;;;;;5052620;28;20489;-67
2021/12/23 10:51:00;;;;;;;1999.90;999.90;;;2.30;99.90;;;;;;5052143;28;20827;-66
2021/12/23 10:59:13;;;;;;;1999.90;999.90;;;2.60;99.90;;;;;;5048381;28;20449;-67
2021/12/23 11:02:01;;;;;;;1999.90;999.90;;;2.50;99.90;;;;;;5050568;28;20447;-66
2021/12/23 11:04:33;;;;;;;1999.90;999.90;;;2.50;99.90;;;;;;5058656;28;20442;-64
2021/12/23 11:07:18;;;;;;;1999.90;999.90;;;2.50;99.90;;;;;;5058408;28;20471;-66
2021/12/23 11:10:03;;;;;;;1999.90;999.90;;;2.50;99.90;;;;;;5052209;28;20551;-66
2021/12/23 11:30:25;;;;;;;1999.90;999.90;;;2.30;99.90;;;;;;5059223;28;20477;-66
2021/12/23 11:36:01;;;;;;;1999.90;999.90;;;2.20;99.90;;;;;;5062288;28;20946;-67
2021/12/23 11:38:35;;;;;;;1999.90;999.90;;;2.20;99.90;;;;;;5060422;28;20897;-63
2021/12/23 11:41:17;;;;;;;1999.90;999.90;;;2.10;99.90;;;;;;5044443;28;20517;-66
2021/12/23 11:43:49;;;;;;;1999.90;999.90;;;2.10;99.90;;;;;;5064494;28;20982;-66
2021/12/23 11:46:18;;;;;;;1999.90;999.90;;;2.30;99.90;;;;;;5056158;28;20453;-68
2021/12/23 11:48:47;;;;;;;1999.90;999.90;;;2.30;99.90;;;;;;5053293;28;20484;-66
2021/12/23 11:51:19;;;;;;;1999.90;999.90;;;2.40;99.90;;;;;;5064700;28;20454;-67
2021/12/23 11:53:48;;;;;;;1999.90;999.90;;;2.30;99.90;;;;;;5064648;28;20456;-68
2021/12/23 11:56:19;;;;;;;1999.90;999.90;;;2.50;99.90;;;;;;5055956;28;20450;-66
2021/12/23 11:58:48;;;;;;;1999.90;999.90;;;2.60;99.90;;;;;;5062657;28;20499;-68
2021/12/23 12:01:24;;;;;;;1999.90;999.90;;;2.80;99.90;;;;;;5045965;28;21032;-65
2021/12/23 12:03:57;;;;;;;1999.90;999.90;;;2.80;99.90;;;;;;5051106;28;20447;-67
2021/12/23 12:06:26;;;;;;;1999.90;999.90;;;3.00;99.90;;;;;;5052240;28;20481;-67
2021/12/23 12:08:55;;;;;;;1999.90;999.90;;;3.10;99.90;;;;;;5055922;28;20484;-68
2021/12/23 12:11:26;;;;;;;1999.90;999.90;;;2.90;99.90;;;;;;5050388;28;20461;-66
2021/12/23 12:13:52;;;;;;;1999.90;999.90;;;2.70;99.90;;;;;;5055650;28;20450;-68
2021/12/23 12:16:31;;;;;;;1999.90;999.90;;;2.60;99.90;;;;;;5055654;28;20472;-67
2021/12/23 12:18:59;;;;;;;1999.90;999.90;;;2.20;99.90;;;;;;5055721;28;20438;-67
2021/12/23 12:21:31;;;;;;;1999.90;999.90;;;2.30;99.90;;;;;;5057583;28;20502;-68
2021/12/23 12:24:15;;;;;;;1999.90;999.90;;;2.50;99.90;;;;;;5056581;28;20450;-68
2021/12/23 12:26:55;;;;;;;1999.90;999.90;;;2.50;99.90;;;;;;5053213;28;20520;-68
2021/12/23 12:29:26;;;;;;;1999.90;999.90;;;2.60;99.90;;;;;;5053619;28;20466;-68
2021/12/23 12:31:53;;;;;;;1999.90;999.90;;;2.70;99.90;;;;;;5054263;28;20450;-67
2021/12/23 12:34:20;;;;;;;1999.90;999.90;;;2.80;99.90;;;;;;5042893;28;20446;-68
2021/12/23 12:36:49;;;;;;;1999.90;999.90;;;2.80;99.90;;;;;;5057508;28;20469;-68
2021/12/23 12:39:25;;;;;;;1999.90;999.90;;;2.90;99.90;;;;;;5054105;28;20454;-68
2021/12/23 12:42:01;;;;;;;1999.90;999.90;;;3.30;99.90;;;;;;5058027;28;20525;-68
2021/12/23 12:44:40;;;;;;;1999.90;999.90;;;2.80;99.90;;;;;;5053788;28;20568;-68
2021/12/23 12:47:13;;;;;;;1999.90;999.90;;;3.00;99.90;;;;;;5055378;28;20462;-68
2021/12/23 12:49:44;;;;;;;1999.90;999.90;;;2.90;99.90;;;;;;5055870;28;20480;-68
2021/12/23 12:52:18;;;;;;;1999.90;999.90;;;2.80;99.90;;;;;;5069963;28;20474;-68
2021/12/23 12:54:49;;;;;;;1999.90;999.90;;;2.80;99.90;;;;;;5063846;28;20457;-68
2021/12/23 12:57:20;;;;;;;1999.90;999.90;;;2.70;99.90;;;;;;5066576;28;20473;-68
2021/12/23 12:59:49;;;;;;;1999.90;999.90;;;2.80;99.90;;;;;;5068084;28;20504;-67
2021/12/23 13:02:22;;;;;;;1999.90;999.90;;;2.80;99.90;;;;;;5059737;28;20507;-67